createdAt,value
2023-01-15T00:09:15.146Z,9.34
2023-01-15T00:19:15.556Z,9.14
2023-01-15T00:29:16.616Z,8.90
2023-01-15T00:39:17.145Z,8.69
2023-01-15T00:49:17.328Z,8.50
2023-01-15T00:59:17.276Z,8.36
2023-01-15T01:09:17.222Z,8.24
2023-01-15T01:19:18.464Z,8.14
2023-01-15T01:29:18.285Z,8.04
2023-01-15T01:39:18.265Z,7.95
2023-01-15T01:49:18.350Z,7.90
2023-01-15T01:59:18.320Z,7.85
2023-01-15T02:09:18.355Z,7.80
2023-01-15T02:19:18.363Z,7.76
2023-01-15T02:29:18.526Z,7.72
2023-01-15T02:39:18.451Z,7.71
2023-01-15T02:49:18.963Z,7.70
2023-01-15T02:59:19.953Z,7.69
2023-01-15T03:09:20.673Z,7.69
2023-01-15T03:19:21.525Z,7.68
2023-01-15T03:29:22.057Z,7.68
2023-01-15T03:39:27.216Z,7.68
2023-01-15T03:49:28.301Z,7.67
2023-01-15T03:59:30.348Z,7.64
2023-01-15T04:09:32.300Z,7.62
2023-01-15T04:19:34.414Z,7.60
2023-01-15T04:29:34.532Z,7.59
2023-01-15T04:39:34.482Z,7.59
2023-01-15T04:49:34.712Z,7.60
2023-01-15T04:59:34.527Z,7.62
2023-01-15T05:09:34.491Z,7.66
2023-01-15T05:19:34.584Z,7.71
2023-01-15T05:29:34.545Z,7.75
2023-01-15T05:39:34.518Z,7.80
2023-01-15T05:49:34.513Z,7.82
2023-01-15T05:59:34.559Z,7.82
2023-01-15T06:09:34.627Z,7.82
2023-01-15T06:19:34.594Z,7.83
2023-01-15T06:29:34.732Z,7.87
2023-01-15T06:39:34.562Z,7.94
2023-01-15T06:49:37.702Z,7.99
2023-01-15T06:59:37.717Z,8.00
2023-01-15T07:09:37.627Z,7.99
2023-01-15T07:19:37.688Z,7.98
2023-01-15T07:29:37.698Z,7.95
2023-01-15T07:39:37.674Z,7.91
2023-01-15T07:49:47.823Z,7.89
2023-01-15T07:59:47.738Z,7.92
2023-01-15T08:09:47.716Z,8.00
2023-01-15T08:19:47.745Z,8.12
2023-01-15T08:29:47.868Z,8.24
2023-01-15T08:39:47.865Z,8.33
2023-01-15T08:49:48.014Z,8.35
2023-01-15T08:59:47.831Z,8.34
2023-01-15T09:09:47.786Z,8.34
2023-01-15T09:19:47.871Z,8.27
2023-01-15T09:29:47.759Z,8.06
2023-01-15T09:39:47.894Z,7.83
2023-01-15T09:49:47.855Z,7.97
2023-01-15T09:59:47.910Z,8.37
2023-01-15T10:09:47.947Z,8.72
2023-01-15T10:19:47.871Z,9.11
2023-01-15T10:29:47.931Z,9.44
2023-01-15T10:39:48.468Z,9.84
2023-01-15T10:49:49.080Z,10.28
2023-01-15T10:59:49.045Z,10.46
2023-01-15T11:09:49.122Z,10.58
2023-01-15T11:19:49.050Z,10.79
2023-01-15T11:29:48.960Z,10.90
2023-01-15T11:39:49.105Z,10.83
2023-01-15T11:50:07.039Z,10.75
2023-01-15T12:00:07.020Z,10.72
2023-01-15T12:10:07.274Z,10.83
2023-01-15T12:20:07.074Z,11.06
2023-01-15T12:30:07.054Z,11.15
2023-01-15T12:40:07.411Z,10.98
2023-01-15T12:50:07.058Z,10.82
2023-01-15T13:00:07.871Z,10.79
2023-01-15T13:10:08.724Z,10.89
2023-01-15T13:20:09.129Z,11.03
2023-01-15T13:30:09.229Z,11.05
2023-01-15T13:40:09.322Z,10.91
2023-01-15T13:50:09.159Z,10.71
2023-01-15T14:00:11.190Z,10.43
2023-01-15T14:10:11.249Z,10.15
2023-01-15T14:20:11.203Z,9.95
2023-01-15T14:30:11.365Z,9.85
2023-01-15T14:40:11.339Z,9.75
2023-01-15T14:50:11.188Z,9.64
2023-01-15T15:00:12.011Z,9.52
2023-01-15T15:10:12.310Z,9.44
2023-01-15T15:20:12.860Z,9.37
2023-01-15T15:30:14.969Z,9.28
2023-01-15T15:40:15.412Z,9.18
2023-01-15T15:50:15.319Z,9.09
2023-01-15T16:00:15.297Z,9.02
2023-01-15T16:10:15.322Z,8.95
2023-01-15T16:20:16.613Z,8.88
2023-01-15T16:30:16.332Z,8.82
2023-01-15T16:40:16.436Z,8.77
2023-01-15T16:50:16.367Z,8.73
2023-01-15T17:00:16.354Z,8.71
2023-01-15T17:10:16.479Z,8.70
2023-01-15T17:20:16.575Z,8.70
2023-01-15T17:30:16.449Z,8.66
2023-01-15T17:40:16.461Z,8.59
2023-01-15T17:50:16.481Z,8.47
2023-01-15T18:00:34.752Z,8.30
2023-01-15T18:10:34.541Z,8.19
2023-01-15T18:20:34.535Z,8.15
2023-01-15T18:30:34.731Z,8.14
2023-01-15T18:40:34.733Z,8.16
2023-01-15T18:50:34.508Z,8.18
2023-01-15T19:00:34.658Z,8.21
2023-01-15T19:10:37.362Z,8.26
2023-01-15T19:20:43.955Z,8.26
2023-01-15T19:30:45.398Z,8.23
2023-01-15T19:40:45.545Z,8.18
2023-01-15T19:50:45.829Z,8.09
2023-01-15T20:00:47.515Z,8.02
2023-01-15T20:10:47.694Z,8.00
2023-01-15T20:20:47.661Z,8.01
2023-01-15T20:30:47.679Z,8.04
2023-01-15T20:40:48.616Z,8.04
2023-01-15T20:50:50.636Z,8.03
2023-01-15T21:00:50.849Z,8.03
2023-01-15T21:10:50.683Z,8.02
2023-01-15T21:20:50.760Z,8.04
2023-01-15T21:30:50.717Z,8.07
2023-01-15T21:40:50.740Z,7.97
2023-01-15T21:50:50.846Z,7.72
2023-01-15T22:00:50.785Z,7.45
2023-01-15T22:10:52.511Z,7.21
2023-01-15T22:20:52.792Z,7.07
2023-01-15T22:30:52.759Z,7.01
2023-01-15T22:40:52.875Z,6.96
2023-01-15T22:50:52.867Z,6.92
2023-01-15T23:00:52.815Z,6.93
2023-01-15T23:10:52.742Z,6.96
2023-01-15T23:20:52.786Z,7.04
2023-01-15T23:30:52.961Z,7.11
2023-01-15T23:40:52.806Z,7.12
2023-01-15T23:50:52.868Z,7.13
